Time;durP1;ratioP1;P1;durP2;ratioP2;P2;SDS_P1;SDS_P2;PMS_P1;PMS_P2;Temp;Humidity;BMP_temperature;BMP_pressure;BME280_temperature;BME280_humidity;BME280_pressure;Samples;Min_cycle;Max_cycle;Signal;HPM_P1;HPM_P2
2022/09/21 00:00:23;;;;;;;20.02;7.75;;;7.70;99.90;;;;;;5067058;28;20051;-64
2022/09/21 00:02:49;;;;;;;18.48;7.75;;;7.70;99.90;;;;;;5065670;28;20674;-63
2022/09/21 00:05:16;;;;;;;15.40;7.72;;;7.90;99.90;;;;;;5062608;28;20464;-63
2022/09/21 00:07:42;;;;;;;22.13;7.93;;;7.90;99.90;;;;;;5059609;28;20048;-63
2022/09/21 00:10:08;;;;;;;19.02;8.05;;;7.50;99.90;;;;;;5074422;28;20532;-64
2022/09/21 00:12:37;;;;;;;18.35;8.18;;;7.60;99.90;;;;;;5068490;28;20557;-64
2022/09/21 00:15:12;;;;;;;17.60;7.55;;;7.40;99.90;;;;;;5057158;28;20127;-64
2022/09/21 00:17:38;;;;;;;17.65;7.88;;;7.80;99.90;;;;;;5086704;28;20130;-64
2022/09/21 00:20:05;;;;;;;19.67;8.35;;;7.70;99.90;;;;;;5066918;28;20728;-64
2022/09/21 00:22:32;;;;;;;16.58;8.05;;;7.90;99.90;;;;;;5070633;28;20078;-64
2022/09/21 00:24:58;;;;;;;15.82;7.80;;;7.60;99.90;;;;;;5045487;28;20509;-64
2022/09/21 00:27:28;;;;;;;19.95;8.52;;;7.60;99.90;;;;;;5069691;28;20040;-64
2022/09/21 00:30:05;;;;;;;18.77;8.00;;;7.40;99.90;;;;;;5069173;28;20044;-64
2022/09/21 00:32:32;;;;;;;20.02;8.30;;;7.70;99.90;;;;;;5063854;28;20672;-64
2022/09/21 00:34:59;;;;;;;18.77;8.00;;;7.60;99.90;;;;;;5061295;28;20056;-64
2022/09/21 00:37:26;;;;;;;19.58;7.63;;;7.40;99.90;;;;;;5070926;28;20314;-64
2022/09/21 00:39:52;;;;;;;19.00;8.30;;;7.70;99.90;;;;;;5076869;28;20067;-64
2022/09/21 00:42:30;;;;;;;14.70;7.82;;;7.60;99.90;;;;;;5059853;28;20066;-64
2022/09/21 00:44:56;;;;;;;17.25;7.70;;;7.40;99.90;;;;;;5057474;28;20046;-63
2022/09/21 00:47:29;;;;;;;19.80;8.43;;;7.50;99.90;;;;;;5069911;28;20044;-64
2022/09/21 00:49:58;;;;;;;13.75;7.47;;;7.70;99.90;;;;;;5052549;28;20260;-64
2022/09/21 00:52:25;;;;;;;14.38;7.00;;;7.60;99.90;;;;;;5065477;28;20129;-63
2022/09/21 00:55:17;;;;;;;15.48;7.80;;;7.50;99.90;;;;;;5072075;28;20043;-63
2022/09/21 00:57:46;;;;;;;12.50;7.10;;;7.30;99.90;;;;;;5063216;28;20538;-63
2022/09/21 01:00:13;;;;;;;17.88;7.78;;;7.20;99.90;;;;;;5055501;28;20684;-64
2022/09/21 01:02:39;;;;;;;19.25;7.70;;;7.40;99.90;;;;;;5066276;28;20088;-63
2022/09/21 01:05:08;;;;;;;15.05;7.70;;;7.60;99.90;;;;;;5064685;28;20064;-64
2022/09/21 01:07:39;;;;;;;18.00;6.57;;;7.30;99.90;;;;;;5068960;28;20126;-64
2022/09/21 01:10:11;;;;;;;18.88;7.15;;;7.60;99.90;;;;;;5055829;28;20324;-64
2022/09/21 01:13:01;;;;;;;16.55;7.25;;;7.30;99.90;;;;;;5050128;28;20047;-63
2022/09/21 01:15:26;;;;;;;14.25;7.88;;;7.60;99.90;;;;;;5054128;28;20277;-63
2022/09/21 01:18:17;;;;;;;17.48;7.43;;;7.20;99.90;;;;;;5065526;28;20845;-63
2022/09/21 01:20:46;;;;;;;15.75;8.02;;;7.20;99.90;;;;;;5049436;28;20430;-63
2022/09/21 01:23:17;;;;;;;16.63;7.38;;;7.40;99.90;;;;;;5067007;28;20051;-64
2022/09/21 01:26:05;;;;;;;13.15;7.13;;;7.20;99.90;;;;;;5047623;28;20479;-64
2022/09/21 01:28:58;;;;;;;17.10;7.20;;;7.50;99.90;;;;;;5067456;28;20230;-63
2022/09/21 01:31:30;;;;;;;21.20;8.15;;;7.10;99.90;;;;;;5059880;28;20048;-64
2022/09/21 01:34:00;;;;;;;19.20;7.70;;;7.20;99.90;;;;;;5050907;28;20065;-64
2022/09/21 01:36:29;;;;;;;18.67;7.53;;;7.30;99.90;;;;;;5055173;28;20071;-64
2022/09/21 01:39:01;;;;;;;17.88;7.78;;;7.50;99.90;;;;;;5061038;28;20063;-65
2022/09/21 01:41:29;;;;;;;17.70;7.80;;;7.30;99.90;;;;;;5075296;28;20024;-63
2022/09/21 01:44:07;;;;;;;18.58;8.27;;;7.30;99.90;;;;;;5067602;28;20036;-64
2022/09/21 01:46:34;;;;;;;19.40;8.43;;;7.10;99.90;;;;;;5057350;28;20071;-64
2022/09/21 01:49:08;;;;;;;14.27;8.00;;;7.30;99.90;;;;;;5057271;28;20044;-64
2022/09/21 01:51:40;;;;;;;18.10;8.10;;;7.30;99.90;;;;;;5064684;28;20326;-63
2022/09/21 01:54:23;;;;;;;18.30;7.13;;;7.30;99.90;;;;;;5070718;28;20046;-64
2022/09/21 01:57:00;;;;;;;18.73;8.07;;;7.40;99.90;;;;;;5055661;28;20326;-63
2022/09/21 01:59:48;;;;;;;22.67;8.52;;;7.10;99.90;;;;;;5058815;28;20043;-64
2022/09/21 02:02:21;;;;;;;19.08;7.88;;;7.40;99.90;;;;;;5053798;28;20500;-64
2022/09/21 02:04:47;;;;;;;19.13;8.57;;;7.00;99.90;;;;;;5071726;28;20040;-64
2022/09/21 02:07:15;;;;;;;15.50;8.65;;;7.10;99.90;;;;;;5062653;28;20397;-63
2022/09/21 02:09:41;;;;;;;17.50;8.52;;;6.90;99.90;;;;;;5058313;28;20412;-64
2022/09/21 02:12:08;;;;;;;23.10;9.43;;;6.80;99.90;;;;;;5052762;28;20293;-64
2022/09/21 02:14:36;;;;;;;21.17;9.70;;;7.20;99.90;;;;;;5065926;28;20044;-64
2022/09/21 02:17:10;;;;;;;15.93;9.02;;;6.90;99.90;;;;;;5064840;28;20054;-64
2022/09/21 02:19:53;;;;;;;15.75;9.48;;;6.80;99.90;;;;;;5061837;28;20298;-63
2022/09/21 02:22:46;;;;;;;22.35;10.00;;;6.90;99.90;;;;;;5037642;28;20127;-64
2022/09/21 02:25:19;;;;;;;19.55;9.73;;;7.20;99.90;;;;;;5081902;28;20625;-64
2022/09/21 02:27:54;;;;;;;20.65;10.38;;;7.00;99.90;;;;;;5057349;28;20283;-64
2022/09/21 02:30:21;;;;;;;20.88;11.30;;;7.20;99.90;;;;;;5087260;28;20044;-64
2022/09/21 02:33:05;;;;;;;23.35;12.27;;;7.20;99.90;;;;;;5052793;28;20032;-63
2022/09/21 02:35:40;;;;;;;21.33;10.57;;;7.00;99.90;;;;;;5055325;28;20498;-64
2022/09/21 02:38:16;;;;;;;17.83;9.98;;;7.00;99.90;;;;;;5076902;28;20383;-63
2022/09/21 02:40:55;;;;;;;20.55;10.25;;;7.20;99.90;;;;;;5064295;28;20201;-63
2022/09/21 02:43:29;;;;;;;22.30;10.40;;;6.90;99.90;;;;;;5069118;28;20827;-63
2022/09/21 02:46:04;;;;;;;24.67;10.90;;;6.70;99.90;;;;;;5050166;28;20452;-64
2022/09/21 02:48:46;;;;;;;17.45;10.88;;;7.00;99.90;;;;;;5057817;28;20100;-63
2022/09/21 02:51:22;;;;;;;19.15;10.45;;;6.90;99.90;;;;;;5066277;28;20039;-63
2022/09/21 02:53:50;;;;;;;17.83;9.30;;;6.70;99.90;;;;;;5053408;28;20090;-63
2022/09/21 02:56:16;;;;;;;22.38;11.07;;;6.70;99.90;;;;;;5052824;28;20040;-64
2022/09/21 02:58:46;;;;;;;17.60;10.13;;;6.70;99.90;;;;;;5055340;28;20188;-63
2022/09/21 03:01:15;;;;;;;21.65;12.05;;;6.80;99.90;;;;;;5059928;28;20340;-63
2022/09/21 03:03:41;;;;;;;17.45;10.93;;;6.80;99.90;;;;;;5068381;28;20371;-63
2022/09/21 03:06:07;;;;;;;19.83;11.48;;;7.00;99.90;;;;;;5065196;28;20828;-63
2022/09/21 03:08:32;;;;;;;24.80;12.20;;;7.20;99.90;;;;;;5065601;28;20319;-63
2022/09/21 03:10:58;;;;;;;21.70;12.25;;;7.20;99.90;;;;;;5068683;28;20124;-64
2022/09/21 03:13:24;;;;;;;24.75;14.25;;;6.80;99.90;;;;;;5051739;28;20126;-63
2022/09/21 03:15:58;;;;;;;20.65;10.88;;;7.20;99.90;;;;;;5069203;28;20084;-64
2022/09/21 03:18:24;;;;;;;26.65;12.40;;;6.90;99.90;;;;;;5078092;28;20449;-63
2022/09/21 03:20:50;;;;;;;20.55;11.82;;;6.70;99.90;;;;;;5065849;28;20040;-63
2022/09/21 03:23:15;;;;;;;26.48;11.48;;;6.80;99.90;;;;;;5062794;28;20815;-64
2022/09/21 03:25:45;;;;;;;29.02;13.98;;;6.90;99.90;;;;;;5057046;28;20568;-64
2022/09/21 03:28:11;;;;;;;22.63;13.18;;;7.00;99.90;;;;;;5063118;28;20380;-64
2022/09/21 03:30:37;;;;;;;23.63;12.07;;;6.90;99.90;;;;;;5058382;28;20686;-63
2022/09/21 03:33:04;;;;;;;26.02;13.10;;;6.80;99.90;;;;;;5040353;28;20389;-64
2022/09/21 03:35:30;;;;;;;25.42;13.43;;;7.10;99.90;;;;;;5064022;28;20374;-63
2022/09/21 03:37:56;;;;;;;30.30;15.27;;;6.90;99.90;;;;;;5068109;28;20093;-64
2022/09/21 03:40:22;;;;;;;33.20;14.82;;;6.80;99.90;;;;;;5056040;28;20316;-63
2022/09/21 03:42:48;;;;;;;23.35;12.57;;;7.00;99.90;;;;;;5042004;28;20122;-63
2022/09/21 03:45:14;;;;;;;25.33;13.18;;;6.60;99.90;;;;;;5062145;28;20044;-63
2022/09/21 03:47:39;;;;;;;18.95;10.45;;;6.60;99.90;;;;;;5044540;28;20377;-64
2022/09/21 03:50:06;;;;;;;25.88;13.20;;;6.80;99.90;;;;;;5061219;28;20947;-63
2022/09/21 03:52:33;;;;;;;28.73;16.17;;;7.00;99.90;;;;;;5062546;28;20040;-64
2022/09/21 03:54:58;;;;;;;23.42;13.30;;;6.60;99.90;;;;;;5057500;28;20049;-63
2022/09/21 03:57:24;;;;;;;24.38;12.63;;;6.90;99.90;;;;;;5064957;28;20433;-63
2022/09/21 03:59:50;;;;;;;25.70;14.18;;;6.50;99.90;;;;;;5056058;28;20343;-63
2022/09/21 04:02:16;;;;;;;26.05;15.00;;;6.70;99.90;;;;;;5048277;28;20621;-63
2022/09/21 04:04:42;;;;;;;22.25;13.15;;;6.70;99.90;;;;;;5055856;28;20322;-63
2022/09/21 04:07:07;;;;;;;26.23;14.30;;;6.60;99.90;;;;;;5066104;28;20056;-63
2022/09/21 04:09:33;;;;;;;24.90;14.65;;;6.70;99.90;;;;;;5070133;28;20043;-63
2022/09/21 04:12:00;;;;;;;23.05;15.10;;;7.20;99.90;;;;;;5066896;28;20526;-63
2022/09/21 04:14:26;;;;;;;20.23;13.57;;;7.10;99.90;;;;;;5067857;28;20107;-63
2022/09/21 04:16:51;;;;;;;23.63;15.25;;;6.80;99.90;;;;;;5060876;28;20036;-62
2022/09/21 04:19:18;;;;;;;29.90;15.23;;;7.20;99.90;;;;;;5084283;28;20395;-63
2022/09/21 04:21:43;;;;;;;32.67;18.77;;;6.80;99.90;;;;;;5056127;28;20051;-62
2022/09/21 04:24:09;;;;;;;28.30;18.77;;;6.80;99.90;;;;;;5064983;28;20397;-63
2022/09/21 04:26:35;;;;;;;25.00;16.08;;;7.00;99.90;;;;;;5066315;28;20051;-63
2022/09/21 04:29:01;;;;;;;27.38;17.73;;;6.90;99.90;;;;;;5070636;28;20039;-62
2022/09/21 04:31:28;;;;;;;24.20;15.10;;;6.80;99.90;;;;;;5064955;28;20051;-63
2022/09/21 04:33:56;;;;;;;23.17;16.50;;;7.20;99.90;;;;;;5055253;28;20057;-63
2022/09/21 04:36:23;;;;;;;25.88;16.45;;;7.00;99.90;;;;;;5074213;28;20085;-62
2022/09/21 04:38:49;;;;;;;31.15;18.10;;;7.10;99.90;;;;;;5073094;28;20036;-65
2022/09/21 04:41:16;;;;;;;23.75;16.40;;;6.90;99.90;;;;;;5055677;28;20036;-62
2022/09/21 04:43:47;;;;;;;25.13;16.30;;;6.80;99.90;;;;;;5085191;28;20113;-62
2022/09/21 04:46:15;;;;;;;29.58;18.45;;;6.90;99.90;;;;;;5077687;28;20054;-62
2022/09/21 04:48:41;;;;;;;21.92;15.23;;;7.10;99.90;;;;;;5084427;28;20042;-62
2022/09/21 04:51:08;;;;;;;29.73;17.10;;;6.70;99.90;;;;;;5059054;28;20036;-62
2022/09/21 04:53:36;;;;;;;31.13;16.73;;;6.90;99.90;;;;;;5085724;28;20405;-61
2022/09/21 04:56:04;;;;;;;27.77;16.58;;;6.70;99.90;;;;;;5075678;28;20063;-64
2022/09/21 04:58:29;;;;;;;33.50;21.70;;;6.90;99.90;;;;;;5053158;28;20040;-64
2022/09/21 05:00:55;;;;;;;32.72;19.48;;;7.00;99.90;;;;;;5069630;28;20063;-61
2022/09/21 05:03:22;;;;;;;30.95;19.75;;;7.00;99.90;;;;;;5076909;28;20059;-65
2022/09/21 05:05:50;;;;;;;33.22;20.73;;;6.90;99.90;;;;;;5077901;28;20616;-62
2022/09/21 05:08:17;;;;;;;33.67;19.52;;;6.90;99.90;;;;;;5103318;28;20100;-64
2022/09/21 05:10:43;;;;;;;25.63;17.77;;;6.70;99.90;;;;;;5058409;28;20634;-64
2022/09/21 05:13:09;;;;;;;35.75;20.95;;;6.30;99.90;;;;;;5076927;28;20501;-62
2022/09/21 05:15:38;;;;;;;35.40;21.90;;;6.70;99.90;;;;;;5073975;28;20044;-64
2022/09/21 05:18:04;;;;;;;30.75;20.50;;;6.40;99.90;;;;;;5041638;28;20060;-65
2022/09/21 05:20:30;;;;;;;28.17;19.08;;;6.20;99.90;;;;;;5071378;28;20164;-62
2022/09/21 05:23:00;;;;;;;32.70;20.63;;;6.60;99.90;;;;;;5078585;28;20186;-62
2022/09/21 05:25:26;;;;;;;31.90;21.42;;;6.30;99.90;;;;;;5083446;28;20100;-64
2022/09/21 05:27:51;;;;;;;36.83;21.58;;;6.30;99.90;;;;;;5083543;28;20043;-62
2022/09/21 05:30:18;;;;;;;38.42;24.95;;;6.30;99.90;;;;;;5085442;28;20062;-63
2022/09/21 05:33:02;;;;;;;40.53;25.77;;;6.50;99.90;;;;;;5099754;28;20043;-63
2022/09/21 05:35:45;;;;;;;39.03;24.05;;;6.30;99.90;;;;;;5075897;28;20046;-62
2022/09/21 05:38:20;;;;;;;31.10;21.60;;;6.60;99.90;;;;;;5058950;28;20485;-62
2022/09/21 05:40:46;;;;;;;35.33;23.45;;;6.60;99.90;;;;;;5084133;28;20051;-64
2022/09/21 05:43:12;;;;;;;40.00;24.13;;;6.50;99.90;;;;;;5069181;28;20504;-63
2022/09/21 05:45:45;;;;;;;33.28;21.88;;;6.30;99.90;;;;;;5070272;28;20043;-63
2022/09/21 05:48:27;;;;;;;36.15;22.80;;;6.40;99.90;;;;;;5077561;28;20138;-62
2022/09/21 05:51:07;;;;;;;31.17;21.40;;;6.80;99.90;;;;;;5086332;28;20302;-64
2022/09/21 05:53:52;;;;;;;38.13;21.27;;;6.80;99.90;;;;;;5084608;28;20354;-64
2022/09/21 05:56:42;;;;;;;37.90;21.65;;;6.90;99.90;;;;;;5069942;28;20043;-63
2022/09/21 05:59:29;;;;;;;37.13;20.88;;;6.50;99.90;;;;;;5082567;28;20039;-63
2022/09/21 06:02:19;;;;;;;33.97;21.23;;;6.60;99.90;;;;;;5073290;28;20086;-63
2022/09/21 06:04:46;;;;;;;34.17;19.73;;;6.90;99.90;;;;;;5070459;28;20083;-62
2022/09/21 06:07:12;;;;;;;32.67;21.20;;;7.10;99.90;;;;;;5079505;28;20623;-63
2022/09/21 06:09:37;;;;;;;29.13;16.88;;;7.10;99.90;;;;;;5067189;28;20145;-62
2022/09/21 06:12:03;;;;;;;33.33;19.98;;;7.10;99.90;;;;;;5081282;28;20079;-63
2022/09/21 06:14:29;;;;;;;25.83;16.65;;;7.40;99.90;;;;;;5038945;28;20035;-63
2022/09/21 06:16:54;;;;;;;30.77;18.67;;;7.00;99.90;;;;;;5082577;28;20122;-64
2022/09/21 06:19:20;;;;;;;33.33;18.35;;;7.10;99.90;;;;;;5068259;28;20044;-63
2022/09/21 06:21:46;;;;;;;23.27;15.07;;;7.40;99.90;;;;;;5084691;28;20042;-63
2022/09/21 06:24:11;;;;;;;25.10;15.95;;;7.40;99.90;;;;;;5098523;28;20439;-63
2022/09/21 06:26:37;;;;;;;31.90;20.02;;;7.90;99.90;;;;;;5082280;28;20050;-63
2022/09/21 06:29:03;;;;;;;21.25;15.38;;;8.10;99.90;;;;;;5079131;28;20456;-64
2022/09/21 06:31:29;;;;;;;22.70;12.05;;;8.80;99.90;;;;;;5084948;28;20127;-63
2022/09/21 06:33:55;;;;;;;19.40;10.35;;;8.90;99.90;;;;;;5067557;28;20485;-64
2022/09/21 06:36:21;;;;;;;14.63;9.05;;;9.50;99.90;;;;;;5072990;28;20036;-63
2022/09/21 06:38:46;;;;;;;19.42;10.57;;;9.40;99.90;;;;;;5076805;28;20054;-64
2022/09/21 06:41:13;;;;;;;11.32;7.97;;;9.80;99.90;;;;;;5078287;28;20254;-64
2022/09/21 06:43:38;;;;;;;12.25;7.82;;;10.30;99.90;;;;;;5068208;28;20071;-63
2022/09/21 06:46:04;;;;;;;13.93;5.53;;;10.50;99.90;;;;;;5077986;28;20135;-64
2022/09/21 06:48:32;;;;;;;7.18;3.47;;;11.00;99.90;;;;;;5053507;28;20513;-63
2022/09/21 06:51:03;;;;;;;10.05;4.03;;;11.20;99.90;;;;;;5081820;28;20087;-64
2022/09/21 06:53:30;;;;;;;13.02;3.10;;;11.80;99.90;;;;;;5075757;28;20489;-63
2022/09/21 06:56:03;;;;;;;5.38;2.60;;;12.00;99.90;;;;;;5073920;28;20054;-64
2022/09/21 06:58:30;;;;;;;9.90;2.60;;;12.20;99.90;;;;;;5071996;28;20040;-64
2022/09/21 07:00:56;;;;;;;7.70;2.10;;;12.80;99.90;;;;;;5072929;28;20071;-63
2022/09/21 07:03:22;;;;;;;7.75;1.83;;;12.80;99.90;;;;;;5074993;28;20528;-64
2022/09/21 07:05:48;;;;;;;7.97;2.00;;;13.00;99.90;;;;;;5082832;28;20043;-64
2022/09/21 07:08:14;;;;;;;7.68;2.08;;;13.40;99.90;;;;;;5074954;28;20047;-64
2022/09/21 07:10:39;;;;;;;6.00;1.27;;;13.50;99.90;;;;;;5085279;28;20466;-64
2022/09/21 07:13:08;;;;;;;4.95;1.20;;;13.70;99.90;;;;;;5077817;28;20046;-64
2022/09/21 07:15:34;;;;;;;6.43;1.42;;;14.00;99.90;;;;;;5076869;28;20070;-64
2022/09/21 07:17:59;;;;;;;8.35;1.50;;;13.90;99.90;;;;;;5062098;28;20496;-64
2022/09/21 07:20:25;;;;;;;6.90;1.27;;;14.40;99.90;;;;;;5062015;28;20436;-63
2022/09/21 07:22:51;;;;;;;9.70;1.23;;;14.80;99.90;;;;;;5062989;28;20108;-64
2022/09/21 07:25:17;;;;;;;8.13;1.27;;;14.90;99.90;;;;;;5045291;28;20082;-63
2022/09/21 07:27:42;;;;;;;7.75;1.30;;;15.10;99.90;;;;;;5089039;28;20043;-64
2022/09/21 07:30:08;;;;;;;6.80;1.20;;;15.60;99.90;;;;;;5084525;28;20489;-64
2022/09/21 07:32:35;;;;;;;5.60;0.80;;;15.70;99.90;;;;;;5068079;28;20172;-63
2022/09/21 07:35:01;;;;;;;7.22;0.95;;;16.10;99.90;;;;;;5059410;28;20062;-64
2022/09/21 07:37:27;;;;;;;7.85;0.80;;;16.10;99.90;;;;;;5083623;28;20509;-65
2022/09/21 07:39:53;;;;;;;8.75;1.27;;;16.40;99.90;;;;;;5056595;28;20109;-65
2022/09/21 07:42:21;;;;;;;8.20;1.20;;;16.20;99.90;;;;;;5092317;28;20655;-64
2022/09/21 07:44:47;;;;;;;7.28;0.70;;;16.40;99.90;;;;;;5081049;28;20496;-64
2022/09/21 07:47:14;;;;;;;11.30;1.13;;;16.80;99.90;;;;;;5075784;28;20038;-64
2022/09/21 07:49:41;;;;;;;6.40;0.88;;;16.90;99.90;;;;;;5068093;28;20045;-65
2022/09/21 07:52:07;;;;;;;8.45;0.80;;;16.90;99.90;;;;;;5056725;28;20054;-65
2022/09/21 07:54:34;;;;;;;7.88;0.90;;;16.90;99.90;;;;;;5088212;28;20500;-66
2022/09/21 07:59:44;;;;;;;6.75;0.70;;;17.30;99.90;;;;;;5093292;28;20151;-65
2022/09/21 08:02:11;;;;;;;7.20;0.70;;;17.60;99.90;;;;;;5070805;28;20553;-65
2022/09/21 08:04:37;;;;;;;9.88;0.70;;;17.60;99.90;;;;;;5076381;28;20040;-65
2022/09/21 08:07:03;;;;;;;4.13;0.50;;;17.70;99.90;;;;;;5051299;28;20043;-65
2022/09/21 08:09:29;;;;;;;6.20;0.50;;;17.70;99.90;;;;;;5074478;28;20043;-65
2022/09/21 08:11:56;;;;;;;5.43;0.60;;;17.60;99.90;;;;;;5078622;28;20481;-64
2022/09/21 08:14:22;;;;;;;5.88;0.80;;;17.60;99.90;;;;;;5083251;28;20110;-64
2022/09/21 08:16:48;;;;;;;6.40;0.50;;;17.30;99.90;;;;;;5074325;28;20480;-65
2022/09/21 08:19:14;;;;;;;5.32;0.50;;;17.90;99.90;;;;;;5064699;28;20540;-65
2022/09/21 08:21:40;;;;;;;4.97;0.50;;;17.80;99.90;;;;;;5072736;28;20051;-64
2022/09/21 08:24:07;;;;;;;7.22;0.90;;;17.60;99.90;;;;;;5072986;28;20448;-64
2022/09/21 08:26:33;;;;;;;5.00;0.70;;;17.60;99.90;;;;;;5092909;28;20514;-63
2022/09/21 08:28:59;;;;;;;7.47;0.75;;;17.60;99.90;;;;;;5075877;28;20106;-63
2022/09/21 08:31:25;;;;;;;6.80;0.80;;;17.80;99.90;;;;;;5105672;28;20444;-63
2022/09/21 08:33:53;;;;;;;6.75;0.55;;;18.00;99.90;;;;;;5081913;28;20451;-64
2022/09/21 08:36:19;;;;;;;6.68;0.70;;;17.90;99.90;;;;;;5054009;28;20063;-65
2022/09/21 08:38:45;;;;;;;5.65;0.65;;;17.90;99.90;;;;;;5075375;28;20119;-63
2022/09/21 08:41:19;;;;;;;7.78;0.70;;;18.20;99.90;;;;;;5071639;28;20044;-65
2022/09/21 08:44:18;;;;;;;8.48;0.50;;;18.10;99.90;;;;;;5059944;28;20036;-64
2022/09/21 08:46:47;;;;;;;8.70;0.40;;;18.40;99.90;;;;;;5086463;28;20663;-63
2022/09/21 08:49:21;;;;;;;4.60;0.57;;;18.50;99.90;;;;;;5072764;28;20039;-64
2022/09/21 08:51:58;;;;;;;6.70;0.52;;;18.40;99.90;;;;;;5069079;28;20402;-63
2022/09/21 08:54:39;;;;;;;7.18;0.40;;;18.40;99.90;;;;;;5070545;28;20152;-64
2022/09/21 08:57:11;;;;;;;6.57;0.40;;;18.50;99.90;;;;;;5051356;28;20047;-64
2022/09/21 08:59:43;;;;;;;5.68;0.40;;;18.90;99.90;;;;;;5075088;28;20078;-63
2022/09/21 09:02:28;;;;;;;4.95;0.30;;;19.10;99.90;;;;;;5076479;28;20032;-64
2022/09/21 09:05:23;;;;;;;5.28;0.50;;;19.30;99.90;;;;;;5098489;28;20036;-63
2022/09/21 09:07:55;;;;;;;7.35;0.30;;;19.10;99.90;;;;;;5070278;28;20548;-63
2022/09/21 09:10:36;;;;;;;5.65;0.60;;;19.20;99.90;;;;;;5079461;28;20143;-63
2022/09/21 09:13:32;;;;;;;5.90;0.70;;;19.30;99.90;;;;;;5074790;28;20036;-63
2022/09/21 09:16:17;;;;;;;5.43;0.43;;;19.60;99.90;;;;;;5045985;28;20050;-64
2022/09/21 09:18:59;;;;;;;3.97;0.40;;;19.80;99.90;;;;;;5077868;28;20041;-63
2022/09/21 09:21:37;;;;;;;4.90;0.30;;;19.90;99.90;;;;;;5096988;28;20044;-65
2022/09/21 09:24:11;;;;;;;4.97;0.40;;;19.90;99.90;;;;;;5073064;28;20044;-62
2022/09/21 09:26:45;;;;;;;5.82;0.40;;;19.30;99.90;;;;;;5060151;28;20043;-63
2022/09/21 09:29:18;;;;;;;6.22;0.47;;;19.60;99.90;;;;;;5071155;28;20127;-64
2022/09/21 09:31:44;;;;;;;6.28;0.50;;;20.00;99.90;;;;;;5069063;28;20130;-64
2022/09/21 09:34:17;;;;;;;7.07;0.40;;;19.90;99.90;;;;;;5059949;28;20060;-63
2022/09/21 09:36:47;;;;;;;4.63;0.70;;;19.90;99.90;;;;;;5058571;28;20040;-64
2022/09/21 09:39:15;;;;;;;6.05;0.50;;;20.10;99.90;;;;;;5063702;28;20127;-64
2022/09/21 09:41:59;;;;;;;3.85;0.40;;;20.60;99.90;;;;;;5073247;28;20044;-65
2022/09/21 09:44:30;;;;;;;5.43;0.50;;;20.40;99.90;;;;;;5071448;28;20417;-64
2022/09/21 09:47:17;;;;;;;5.03;0.47;;;20.50;99.90;;;;;;5081133;28;20035;-65
2022/09/21 09:49:59;;;;;;;5.63;0.70;;;20.70;99.90;;;;;;5046599;28;20047;-65
2022/09/21 09:52:25;;;;;;;5.90;0.50;;;21.00;99.90;;;;;;5080099;28;20764;-65
2022/09/21 09:54:50;;;;;;;2.50;0.20;;;21.10;99.90;;;;;;5045619;28;20044;-66
2022/09/21 09:57:25;;;;;;;5.57;0.80;;;20.80;95.70;;;;;;5033723;28;20035;-64
2022/09/21 09:59:57;;;;;;;3.13;0.30;;;20.70;95.30;;;;;;5050857;28;20035;-64
2022/09/21 10:02:28;;;;;;;5.22;0.40;;;20.80;96.50;;;;;;5069589;28;20126;-65
2022/09/21 10:05:02;;;;;;;3.08;0.30;;;20.80;97.40;;;;;;5059993;28;20089;-65
2022/09/21 10:07:39;;;;;;;4.95;0.40;;;21.20;94.20;;;;;;5042193;28;20036;-64
2022/09/21 10:10:28;;;;;;;4.55;0.30;;;21.60;93.10;;;;;;5063084;28;20290;-64
2022/09/21 10:13:01;;;;;;;5.72;0.30;;;21.80;90.20;;;;;;5053773;28;20036;-64
2022/09/21 10:15:28;;;;;;;5.82;0.38;;;21.30;87.30;;;;;;5055738;28;20098;-64
2022/09/21 10:18:00;;;;;;;5.65;0.45;;;21.00;90.60;;;;;;5042064;28;20524;-64
2022/09/21 10:20:26;;;;;;;4.47;0.40;;;21.40;87.50;;;;;;5060820;28;20027;-64
2022/09/21 10:22:55;;;;;;;5.75;0.57;;;20.70;88.10;;;;;;5062321;28;20296;-64
2022/09/21 10:25:21;;;;;;;4.13;0.30;;;19.50;93.10;;;;;;5059675;28;20052;-64
2022/09/21 10:27:50;;;;;;;7.60;0.40;;;18.80;96.90;;;;;;5062117;28;20043;-63
2022/09/21 10:30:37;;;;;;;5.07;0.20;;;18.50;99.90;;;;;;5061196;28;20106;-64
2022/09/21 10:33:17;;;;;;;6.50;0.30;;;18.00;99.90;;;;;;5066221;28;20571;-64
2022/09/21 10:35:52;;;;;;;5.78;0.50;;;17.50;99.90;;;;;;5065772;28;20700;-65
2022/09/21 10:38:19;;;;;;;4.32;0.50;;;17.40;99.90;;;;;;5048955;28;20204;-64
2022/09/21 10:40:46;;;;;;;4.55;0.40;;;17.80;99.90;;;;;;5069227;28;20112;-64
2022/09/21 10:43:26;;;;;;;2.33;0.28;;;18.10;99.90;;;;;;5071658;28;20044;-65
2022/09/21 10:45:55;;;;;;;4.05;0.30;;;18.20;99.80;;;;;;5080174;28;20132;-65
2022/09/21 10:48:23;;;;;;;4.68;0.28;;;17.80;99.90;;;;;;5045069;28;20120;-65
2022/09/21 10:50:51;;;;;;;4.32;0.40;;;17.50;99.90;;;;;;5062322;28;20051;-64
2022/09/21 10:53:29;;;;;;;2.20;0.30;;;17.40;99.90;;;;;;5089935;28;20035;-64
2022/09/21 10:56:17;;;;;;;4.78;0.40;;;17.30;99.90;;;;;;5061194;28;20543;-65
2022/09/21 10:59:28;;;;;;;4.57;0.30;;;17.20;99.90;;;;;;5073197;28;20704;-64
2022/09/21 11:01:56;;;;;;;5.47;0.80;;;17.40;99.90;;;;;;5093955;28;20556;-64
2022/09/21 11:04:43;;;;;;;4.55;0.30;;;18.70;99.90;;;;;;5080271;28;20158;-64
2022/09/21 11:07:15;;;;;;;6.93;0.50;;;19.90;99.90;;;;;;5079229;28;20100;-64
2022/09/21 11:09:52;;;;;;;4.70;0.40;;;20.30;98.50;;;;;;5061502;28;20371;-65
2022/09/21 11:12:35;;;;;;;4.65;0.30;;;20.40;95.20;;;;;;5062838;28;20679;-65
2022/09/21 11:15:32;;;;;;;3.97;0.40;;;20.10;91.40;;;;;;5079021;28;20040;-65
2022/09/21 11:18:24;;;;;;;4.10;0.30;;;19.70;96.80;;;;;;5069656;28;20185;-64
2022/09/21 11:21:28;;;;;;;3.63;0.30;;;20.30;99.70;;;;;;5028703;28;20084;-64
2022/09/21 11:24:27;;;;;;;2.75;0.22;;;21.00;99.90;;;;;;5018459;28;20075;-65
2022/09/21 11:27:02;;;;;;;4.18;0.40;;;21.90;92.30;;;;;;5060245;28;20397;-65
2022/09/21 11:29:52;;;;;;;4.55;0.50;;;22.40;90.20;;;;;;5074709;28;20071;-65
2022/09/21 11:32:32;;;;;;;6.75;0.30;;;22.00;88.70;;;;;;5044703;28;20287;-65
2022/09/21 11:35:17;;;;;;;7.25;0.32;;;21.90;88.40;;;;;;5077238;28;20048;-65
2022/09/21 11:37:53;;;;;;;4.68;0.30;;;22.60;85.20;;;;;;5092251;28;20047;-65
2022/09/21 11:40:37;;;;;;;5.57;0.30;;;23.00;85.30;;;;;;5069834;28;20551;-65
2022/09/21 11:43:42;;;;;;;5.88;0.50;;;23.40;79.50;;;;;;5072311;28;20460;-65
2022/09/21 11:46:10;;;;;;;4.65;0.40;;;23.30;74.00;;;;;;5063116;28;20549;-65
2022/09/21 11:49:06;;;;;;;4.47;0.30;;;23.40;73.30;;;;;;5075632;28;20036;-64
2022/09/21 11:52:05;;;;;;;5.28;0.30;;;24.10;67.70;;;;;;5067705;28;20085;-65
2022/09/21 11:54:40;;;;;;;3.28;0.30;;;24.10;60.80;;;;;;5071968;28;20497;-65
2022/09/21 11:57:21;;;;;;;3.95;0.30;;;24.00;65.80;;;;;;5092233;28;20042;-65
2022/09/21 12:00:07;;;;;;;3.15;0.20;;;24.10;61.90;;;;;;5065601;28;20697;-65
2022/09/21 12:03:04;;;;;;;4.70;0.30;;;24.80;60.10;;;;;;5091562;28;20131;-65
2022/09/21 12:06:01;;;;;;;4.47;0.30;;;25.00;54.70;;;;;;5066900;28;20043;-65
2022/09/21 12:08:32;;;;;;;2.25;0.20;;;24.50;51.90;;;;;;5067472;28;20047;-66
2022/09/21 12:11:12;;;;;;;3.30;0.23;;;24.30;52.90;;;;;;5075563;28;20052;-64
2022/09/21 12:14:15;;;;;;;3.35;0.20;;;24.30;51.20;;;;;;5075555;28;20059;-65
2022/09/21 12:16:50;;;;;;;2.42;0.20;;;24.30;53.20;;;;;;5063078;28;20040;-65
2022/09/21 12:19:26;;;;;;;5.05;0.40;;;24.20;53.20;;;;;;5077685;28;20447;-65
2022/09/21 12:22:04;;;;;;;2.88;0.20;;;24.00;50.90;;;;;;5066057;28;20039;-65
2022/09/21 12:24:39;;;;;;;3.50;0.20;;;23.70;53.80;;;;;;5066456;28;20496;-65
2022/09/21 12:27:31;;;;;;;4.40;0.30;;;23.80;54.20;;;;;;5050995;28;20463;-65
2022/09/21 12:30:03;;;;;;;4.18;0.30;;;23.70;55.70;;;;;;5074127;28;20047;-66
2022/09/21 12:32:52;;;;;;;4.70;0.47;;;23.90;58.30;;;;;;5095227;28;20040;-66
2022/09/21 12:35:30;;;;;;;5.28;0.45;;;23.90;57.30;;;;;;5075725;28;20056;-66
2022/09/21 12:38:25;;;;;;;3.60;0.25;;;23.40;56.20;;;;;;5062334;28;20100;-65
2022/09/21 12:41:04;;;;;;;5.15;0.40;;;23.80;59.30;;;;;;5077801;28;20210;-65
2022/09/21 12:43:35;;;;;;;4.22;0.45;;;23.60;60.20;;;;;;5046961;28;20935;-65
2022/09/21 12:46:15;;;;;;;8.00;0.63;;;22.50;61.10;;;;;;5075814;28;20464;-65
2022/09/21 12:48:42;;;;;;;4.95;0.40;;;21.20;71.20;;;;;;5072343;28;20071;-66
2022/09/21 12:51:14;;;;;;;6.00;0.30;;;20.50;79.10;;;;;;5057725;28;20043;-65
2022/09/21 12:53:46;;;;;;;6.32;0.40;;;20.10;86.50;;;;;;5069290;28;20044;-65
2022/09/21 12:56:17;;;;;;;4.15;0.40;;;19.40;96.30;;;;;;5047969;28;20343;-65
2022/09/21 12:58:47;;;;;;;3.40;0.30;;;18.90;99.90;;;;;;5059434;28;20630;-66
2022/09/21 13:01:31;;;;;;;5.25;0.30;;;18.70;99.90;;;;;;5091827;28;20044;-66
2022/09/21 13:04:16;;;;;;;5.60;0.22;;;18.90;99.90;;;;;;5050226;28;20032;-65
2022/09/21 13:07:00;;;;;;;5.07;0.30;;;20.10;99.90;;;;;;5073032;28;20101;-65
2022/09/21 13:09:28;;;;;;;3.03;0.20;;;21.70;92.90;;;;;;5074404;28;20606;-65
2022/09/21 13:12:03;;;;;;;4.95;0.30;;;22.10;88.00;;;;;;5077057;28;20451;-65